^^
Meteo Knjazevac Station Historical Data
Daily Summary for April 7, 2021 Units:  English    Metric   Both
Daily Weekly Monthly Yearly Custom
  High: Low: Average:
Temperature: 61.5 °F 53.8 °F 56.6 °F
Dew Point: 54.2 °F 50.8 °F 52.2 °F
Humidity: 91% 77% 85%
Wind Speed: 2mph 0mph 0.8mph
Wind Gust: 5mph - -
Wind- - West
Pressure: 30.00 in 29.95 in -
Precipitation: 0.00 in    
Historical Graphs
 
 
Tabular Data for April 7, 2021
Time Temperature Dew Point Pressure Wind Wind Speed Wind Gust Humidity Rainfall Rate (Hourly) solar Conditions
00:00 61.5 °F 54.2 °F 29.95 in West 1 mph 2 mph 77% 0.00 in 0 W/m2
00:10 61.3 °F 54.1 °F 29.95 in Calm   2 mph 77% 0.00 in 0 W/m2
00:20 61.2 °F 54.2 °F 29.95 in SSE 1 mph 2 mph 78% 0.00 in 0 W/m2
00:30 60.4 °F 53.5 °F 29.95 in WSW 1 mph 2 mph 78% 0.00 in 0 W/m2
00:40 60.1 °F 53.5 °F 29.95 in Calm   3 mph 79% 0.00 in 0 W/m2
00:50 60.1 °F 53.5 °F 29.95 in Calm   2 mph 79% 0.00 in 0 W/m2
01:00 59.9 °F 53.7 °F 29.95 in NNE 2 mph 3 mph 80% 0.00 in 0 W/m2
01:10 59.5 °F 53.4 °F 29.96 in North 2 mph 3 mph 80% 0.00 in 0 W/m2
01:20 59.4 °F 53.2 °F 29.96 in Calm   3 mph 80% 0.00 in 0 W/m2
01:30 59 °F 53.1 °F 29.96 in West 1 mph 3 mph 81% 0.00 in 0 W/m2
01:40 58.8 °F 53 °F 29.96 in Calm   2 mph 81% 0.00 in 0 W/m2
01:50 58.8 °F 53.3 °F 29.96 in NNW 1 mph 2 mph 82% 0.00 in 0 W/m2
02:00 58.6 °F 52.8 °F 29.97 in Calm   2 mph 81% 0.00 in 0 W/m2
02:10 58.5 °F 53.3 °F 29.96 in Calm   2 mph 83% 0.00 in 0 W/m2
02:20 57.9 °F 52.8 °F 29.97 in Calm   2 mph 83% 0.00 in 0 W/m2
02:30 57.6 °F 52.4 °F 29.96 in NW 1 mph 2 mph 83% 0.00 in 0 W/m2
02:40 57 °F 52.2 °F 29.96 in NW 1 mph 2 mph 84% 0.00 in 0 W/m2
02:50 56.6 °F 52.2 °F 29.96 in West 2 mph 3 mph 85% 0.00 in 0 W/m2
03:00 56.1 °F 51.7 °F 29.97 in West 2 mph 4 mph 85% 0.00 in 0 W/m2
03:10 55.9 °F 51.8 °F 29.97 in WSW 2 mph 3 mph 86% 0.00 in 0 W/m2
03:20 55.8 °F 51.6 °F 29.97 in WNW 1 mph 3 mph 86% 0.00 in 0 W/m2
03:30 55.6 °F 51.8 °F 29.97 in WNW 2 mph 3 mph 87% 0.00 in 0 W/m2
03:40 55.6 °F 52.1 °F 29.98 in Calm   3 mph 88% 0.00 in 0 W/m2
03:50 55.7 °F 52.2 °F 29.98 in NW 1 mph 2 mph 88% 0.00 in 0 W/m2
04:00 55.4 °F 51.9 °F 29.97 in NW 1 mph 2 mph 88% 0.00 in 0 W/m2
04:10 55.2 °F 51.7 °F 29.98 in Calm   4 mph 88% 0.00 in 0 W/m2
04:20 55 °F 51.5 °F 29.98 in West 1 mph 2 mph 88% 0.00 in 0 W/m2
04:30 54.9 °F 51.4 °F 29.98 in WNW 1 mph 2 mph 88% 0.00 in 0 W/m2
04:40 54.9 °F 51.4 °F 29.98 in NW 1 mph 3 mph 88% 0.00 in 0 W/m2
04:50 54.7 °F 51.2 °F 29.98 in WNW 1 mph 2 mph 88% 0.00 in 0 W/m2
05:00 54.5 °F 51.3 °F 29.98 in Calm   2 mph 89% 0.00 in 0 W/m2
05:10 54.3 °F 51.1 °F 29.98 in Calm   2 mph 89% 0.00 in 0 W/m2
05:20 54.1 °F 51 °F 29.99 in Calm   2 mph 89% 0.00 in 0 W/m2
05:30 54 °F 50.8 °F 29.99 in WNW 1 mph 5 mph 89% 0.00 in 5 W/m2
05:40 53.8 °F 50.9 °F 29.99 in WNW 1 mph 3 mph 90% 0.00 in 12 W/m2
05:50 53.8 °F 50.9 °F 29.99 in Calm   2 mph 90% 0.00 in 19 W/m2
06:00 53.8 °F 50.9 °F 29.99 in NW 1 mph 3 mph 90% 0.00 in 27 W/m2
06:10 53.8 °F 50.9 °F 30.00 in Calm   2 mph 90% 0.00 in 39 W/m2
06:20 54 °F 51.1 °F 30.00 in NNW 1 mph 2 mph 90% 0.00 in 41 W/m2
06:30 54.1 °F 51.3 °F 30.00 in Calm   1 mph 90% 0.00 in 98 W/m2
06:40 54.2 °F 51.6 °F 30.00 in West 2 mph 3 mph 91% 0.00 in 123 W/m2
06:50 54.7 °F 52.1 °F 30.00 in WNW 1 mph 3 mph 91% 0.00 in 151 W/m2
07:00 55.2 °F 52.6 °F 30.00 in WNW 1 mph 3 mph 91% 0.00 in 185 W/m2
Knjazevac, Serbia
Compliments of Weather Underground - 2 mb